createdAt,value
2019-06-27T00:00:12.140Z,16.75
2019-06-27T00:05:05.219Z,17.12
2019-06-27T00:09:57.473Z,17.35
2019-06-27T00:14:50.124Z,17.12
2019-06-27T00:19:42.691Z,18.27
2019-06-27T00:24:35.368Z,17.87
2019-06-27T00:29:27.927Z,18.27
2019-06-27T00:34:20.622Z,18.42
2019-06-27T00:39:13.550Z,19.00
2019-06-27T00:44:05.735Z,18.57
2019-06-27T00:48:58.162Z,18.10
2019-06-27T00:53:50.728Z,18.20
2019-06-27T00:58:43.010Z,19.15
2019-06-27T01:03:35.738Z,17.73
2019-06-27T01:08:28.374Z,19.20
2019-06-27T01:13:21.274Z,18.92
2019-06-27T01:18:13.969Z,19.10
2019-06-27T01:23:06.750Z,19.23
2019-06-27T01:27:59.495Z,19.30
2019-06-27T01:32:52.245Z,19.52
2019-06-27T01:37:44.681Z,19.80
2019-06-27T01:42:37.339Z,19.35
2019-06-27T01:47:29.598Z,18.30
2019-06-27T01:52:22.470Z,18.23
2019-06-27T01:57:14.964Z,19.42
2019-06-27T02:02:08.029Z,18.98
2019-06-27T02:07:03.629Z,18.55
2019-06-27T02:11:56.347Z,18.92
2019-06-27T02:16:48.783Z,19.87
2019-06-27T02:21:41.520Z,19.40
2019-06-27T02:26:34.172Z,19.37
2019-06-27T02:31:26.837Z,20.32
2019-06-27T02:36:19.284Z,20.20
2019-06-27T02:41:12.044Z,19.35
2019-06-27T02:46:07.835Z,20.20
2019-06-27T02:51:00.646Z,19.90
2019-06-27T02:55:53.456Z,19.42
2019-06-27T03:00:46.572Z,19.98
2019-06-27T03:05:38.759Z,19.42
2019-06-27T03:10:31.628Z,24.12
2019-06-27T03:15:24.321Z,20.57
2019-06-27T03:20:17.087Z,21.82
2019-06-27T03:25:09.830Z,21.27
2019-06-27T03:30:02.291Z,21.10
2019-06-27T03:34:54.700Z,21.30
2019-06-27T03:39:47.423Z,21.15
2019-06-27T03:44:39.964Z,21.00
2019-06-27T03:49:32.725Z,22.75
2019-06-27T03:54:25.229Z,21.62
2019-06-27T03:59:17.992Z,21.85
2019-06-27T04:04:11.187Z,22.00
2019-06-27T04:09:04.711Z,23.20
2019-06-27T04:13:57.477Z,22.48
2019-06-27T04:18:50.276Z,22.90
2019-06-27T04:23:43.029Z,22.25
2019-06-27T04:28:35.740Z,22.35
2019-06-27T04:33:28.523Z,21.50
2019-06-27T04:38:21.312Z,22.25
2019-06-27T04:43:14.350Z,21.00
2019-06-27T04:48:06.805Z,21.97
2019-06-27T04:52:59.686Z,22.17
2019-06-27T04:57:51.953Z,22.13
2019-06-27T05:02:44.837Z,20.43
2019-06-27T05:07:37.245Z,19.45
2019-06-27T05:12:29.750Z,18.48
2019-06-27T05:17:22.279Z,18.67
2019-06-27T05:22:14.768Z,17.75
2019-06-27T05:27:07.224Z,17.60
2019-06-27T05:32:00.114Z,17.35
2019-06-27T05:36:53.167Z,17.25
2019-06-27T05:41:45.121Z,16.10
2019-06-27T05:46:38.042Z,16.48
2019-06-27T05:51:30.484Z,16.30
2019-06-27T05:56:23.380Z,15.67
2019-06-27T06:01:16.812Z,15.32
2019-06-27T06:06:09.279Z,16.60
2019-06-27T06:11:02.259Z,15.45
2019-06-27T06:15:54.784Z,14.98
2019-06-27T06:20:47.381Z,15.57
2019-06-27T06:25:39.882Z,14.73
2019-06-27T06:30:43.970Z,15.68
2019-06-27T06:35:27.203Z,14.85
2019-06-27T06:40:20.031Z,14.15
2019-06-27T06:45:12.647Z,13.93
2019-06-27T06:50:05.991Z,14.13
2019-06-27T06:54:58.730Z,14.05
2019-06-27T06:59:52.108Z,14.18
2019-06-27T07:04:44.519Z,12.98
2019-06-27T07:09:37.045Z,13.13
2019-06-27T07:14:29.863Z,13.58
2019-06-27T07:19:22.319Z,13.05
2019-06-27T07:24:14.992Z,13.30
2019-06-27T07:29:07.799Z,13.25
2019-06-27T07:34:00.556Z,12.43
2019-06-27T07:38:52.993Z,11.88
2019-06-27T07:43:45.156Z,12.10
2019-06-27T07:48:37.852Z,13.03
2019-06-27T07:53:30.549Z,11.43
2019-06-27T07:58:23.252Z,11.40
2019-06-27T08:03:16.193Z,11.08
2019-06-27T08:08:09.067Z,10.90
2019-06-27T08:13:01.663Z,10.23
2019-06-27T08:17:53.791Z,10.18
2019-06-27T08:22:46.409Z,10.97
2019-06-27T08:27:39.095Z,9.58
2019-06-27T08:32:31.653Z,10.75
2019-06-27T08:37:24.680Z,9.70
2019-06-27T08:42:17.531Z,9.97
2019-06-27T08:47:09.899Z,8.48
2019-06-27T08:52:02.746Z,9.00
2019-06-27T08:56:55.573Z,8.40
2019-06-27T09:01:48.630Z,8.50
2019-06-27T09:06:40.990Z,8.78
2019-06-27T09:11:37.785Z,8.50
2019-06-27T09:16:28.084Z,8.35
2019-06-27T09:21:20.913Z,7.78
2019-06-27T09:26:13.244Z,7.25
2019-06-27T09:31:05.930Z,6.53
2019-06-27T09:35:58.378Z,6.00
2019-06-27T09:40:51.083Z,6.35
2019-06-27T09:45:43.426Z,6.00
2019-06-27T09:50:35.941Z,5.75
2019-06-27T09:55:28.736Z,5.53
2019-06-27T10:00:22.662Z,5.40
2019-06-27T10:05:15.343Z,5.90
2019-06-27T10:10:08.191Z,5.87
2019-06-27T10:15:00.870Z,4.70
2019-06-27T10:19:53.419Z,5.00
2019-06-27T10:24:45.965Z,4.78
2019-06-27T10:29:38.878Z,4.87
2019-06-27T10:34:31.652Z,5.15
2019-06-27T10:39:24.111Z,5.60
2019-06-27T10:44:16.851Z,4.83
2019-06-27T10:49:09.619Z,4.80
2019-06-27T10:54:02.606Z,4.72
2019-06-27T10:58:55.422Z,5.05
2019-06-27T11:03:48.146Z,5.40
2019-06-27T11:08:40.592Z,4.60
2019-06-27T11:13:33.632Z,4.35
2019-06-27T11:18:26.222Z,4.67
2019-06-27T11:23:18.671Z,4.87
2019-06-27T11:28:11.379Z,4.67
2019-06-27T11:33:04.140Z,4.43
2019-06-27T11:37:56.376Z,4.70
2019-06-27T11:42:48.908Z,4.47
2019-06-27T11:47:41.601Z,4.62
2019-06-27T11:52:33.995Z,5.05
2019-06-27T11:57:26.463Z,4.55
2019-06-27T12:02:19.200Z,5.10
2019-06-27T12:07:11.848Z,5.00
2019-06-27T12:12:04.307Z,4.95
2019-06-27T12:16:56.750Z,4.90
2019-06-27T12:21:49.276Z,5.28
2019-06-27T12:26:41.702Z,6.60
2019-06-27T12:31:34.309Z,5.40
2019-06-27T12:36:26.724Z,5.20
2019-06-27T12:41:19.411Z,5.78
2019-06-27T12:46:12.652Z,5.53
2019-06-27T12:51:06.008Z,6.20
2019-06-27T12:55:58.493Z,6.10
2019-06-27T13:00:51.483Z,5.80
2019-06-27T13:05:43.883Z,6.22
2019-06-27T13:10:37.635Z,5.90
2019-06-27T13:15:30.224Z,5.60
2019-06-27T13:20:23.158Z,6.40
2019-06-27T13:25:15.342Z,5.90
2019-06-27T13:30:08.630Z,5.40
2019-06-27T13:35:01.037Z,5.50
2019-06-27T13:39:53.668Z,5.72
2019-06-27T13:44:46.001Z,5.53
2019-06-27T13:49:38.635Z,6.03
2019-06-27T13:54:31.367Z,5.40
2019-06-27T13:59:23.399Z,5.30
2019-06-27T14:04:16.099Z,5.90
2019-06-27T14:09:08.209Z,5.05
2019-06-27T14:14:00.976Z,4.78
2019-06-27T14:18:53.465Z,5.17
2019-06-27T14:23:46.311Z,5.17
2019-06-27T14:28:39.161Z,5.47
2019-06-27T14:33:31.793Z,5.40
2019-06-27T14:38:24.384Z,5.50
2019-06-27T14:43:17.095Z,6.10
2019-06-27T14:48:09.390Z,5.40
2019-06-27T14:53:01.949Z,5.45
2019-06-27T14:57:55.148Z,5.40
2019-06-27T15:02:47.581Z,5.15
2019-06-27T15:07:40.647Z,5.03
2019-06-27T15:12:35.732Z,5.17
2019-06-27T15:17:27.048Z,5.17
2019-06-27T15:22:19.867Z,5.25
2019-06-27T15:27:12.736Z,6.03
2019-06-27T15:32:05.664Z,4.72
2019-06-27T15:36:58.179Z,5.00
2019-06-27T15:41:50.655Z,4.60
2019-06-27T15:46:43.304Z,4.97
2019-06-27T15:51:35.838Z,4.80
2019-06-27T15:56:28.656Z,4.20
2019-06-27T16:01:21.135Z,4.53
2019-06-27T16:06:15.146Z,4.35
2019-06-27T16:11:07.787Z,4.50
2019-06-27T16:16:00.323Z,4.05
2019-06-27T16:20:52.969Z,3.87
2019-06-27T16:25:45.431Z,4.10
2019-06-27T16:30:37.820Z,3.65
2019-06-27T16:35:30.843Z,3.05
2019-06-27T16:40:23.674Z,2.87
2019-06-27T16:45:16.679Z,2.75
2019-06-27T16:50:10.249Z,2.77
2019-06-27T16:55:02.815Z,2.70
2019-06-27T16:59:55.721Z,2.60
2019-06-27T17:04:48.505Z,2.55
2019-06-27T17:09:40.885Z,2.45
2019-06-27T17:14:33.596Z,2.20
2019-06-27T17:19:26.802Z,2.10
2019-06-27T17:24:20.697Z,2.05
2019-06-27T17:29:13.122Z,1.75
2019-06-27T17:34:05.383Z,1.77
2019-06-27T17:38:58.177Z,1.50
2019-06-27T17:43:50.609Z,1.82
2019-06-27T17:48:42.999Z,1.80
2019-06-27T17:53:35.100Z,1.70
2019-06-27T17:58:27.931Z,1.72
2019-06-27T18:03:20.110Z,2.02
2019-06-27T18:08:12.839Z,1.50
2019-06-27T18:13:05.700Z,1.57
2019-06-27T18:17:58.147Z,1.50
2019-06-27T18:22:50.991Z,1.55
2019-06-27T18:27:43.248Z,1.75
2019-06-27T18:32:35.645Z,1.72
2019-06-27T18:37:30.051Z,1.90
2019-06-27T18:42:22.037Z,1.90
2019-06-27T18:47:14.988Z,2.00
2019-06-27T18:52:08.096Z,1.98
2019-06-27T18:57:00.278Z,2.10
2019-06-27T19:01:52.777Z,2.00
2019-06-27T19:06:45.582Z,2.10
2019-06-27T19:11:38.265Z,2.05
2019-06-27T19:16:30.808Z,2.05
2019-06-27T19:21:25.097Z,2.40
2019-06-27T19:26:17.564Z,1.90
2019-06-27T19:31:10.119Z,2.00
2019-06-27T19:36:03.503Z,1.90
2019-06-27T19:40:55.938Z,2.00
2019-06-27T19:45:48.476Z,5.13
2019-06-27T19:50:40.909Z,2.50
2019-06-27T19:55:33.407Z,3.95
2019-06-27T20:00:26.453Z,2.10
2019-06-27T20:05:19.049Z,2.30
2019-06-27T20:10:12.202Z,3.03
2019-06-27T20:15:05.451Z,2.60
2019-06-27T20:19:57.900Z,2.05
2019-06-27T20:24:50.811Z,2.02
2019-06-27T20:29:43.333Z,2.50
2019-06-27T20:34:39.373Z,2.20
2019-06-27T20:39:30.787Z,2.85
2019-06-27T20:44:25.449Z,2.40
2019-06-27T20:49:18.121Z,2.50
2019-06-27T20:54:12.393Z,2.40
2019-06-27T20:59:04.675Z,2.45
2019-06-27T21:03:58.609Z,2.40
2019-06-27T21:08:51.984Z,3.52
2019-06-27T21:13:44.330Z,3.20
2019-06-27T21:18:36.957Z,2.75
2019-06-27T21:23:29.789Z,3.00
2019-06-27T21:28:22.848Z,3.27
2019-06-27T21:33:15.240Z,2.87
2019-06-27T21:38:08.371Z,2.92
2019-06-27T21:43:02.475Z,3.33
2019-06-27T21:47:55.319Z,3.02
2019-06-27T21:52:47.795Z,2.98
2019-06-27T21:57:40.094Z,3.55
2019-06-27T22:02:33.449Z,2.98
2019-06-27T22:07:26.232Z,3.00
2019-06-27T22:12:18.802Z,3.10
2019-06-27T22:17:11.621Z,2.80
2019-06-27T22:22:04.128Z,2.77
2019-06-27T22:26:56.891Z,2.62
2019-06-27T22:31:49.408Z,3.00
2019-06-27T22:36:42.136Z,3.10
2019-06-27T22:41:52.761Z,3.20
2019-06-27T22:47:04.014Z,3.20
2019-06-27T22:52:14.947Z,2.90
2019-06-27T22:57:07.807Z,3.05
2019-06-27T23:02:00.637Z,3.25
2019-06-27T23:06:53.278Z,3.27
2019-06-27T23:11:45.847Z,3.45
2019-06-27T23:16:38.193Z,3.40
2019-06-27T23:21:30.714Z,3.17
2019-06-27T23:26:23.450Z,3.40
2019-06-27T23:31:16.479Z,3.20
2019-06-27T23:36:09.039Z,3.20
2019-06-27T23:41:01.698Z,3.62
2019-06-27T23:45:54.331Z,3.10
2019-06-27T23:50:46.893Z,3.02
2019-06-27T23:55:39.345Z,3.30
